Time;durP1;ratioP1;P1;durP2;ratioP2;P2;SDS_P1;SDS_P2;PMS_P1;PMS_P2;Temp;Humidity;BMP_temperature;BMP_pressure;BME280_temperature;BME280_humidity;BME280_pressure;Samples;Min_cycle;Max_cycle;Signal;HPM_P1;HPM_P2
2024/03/08 06:01:29;;;;;;;40.60;18.63;;;;;;;;;;5678699;22;20514;-74
2024/03/08 06:03:56;;;;;;;46.60;19.97;;;;;;;;;;5033404;28;20461;-74
2024/03/08 06:06:23;;;;;;;45.67;19.40;;;;;;;;;;5030975;28;21030;-74
2024/03/08 06:08:49;;;;;;;56.13;21.90;;;;;;;;;;5026747;28;20456;-74
2024/03/08 06:11:17;;;;;;;53.27;21.70;;;;;;;;;;5033430;28;20417;-75
2024/03/08 06:13:43;;;;;;;48.07;20.10;;;;;;;;;;5034733;28;20410;-77
2024/03/08 06:16:09;;;;;;;50.53;20.00;;;;;;;;;;5034098;28;20773;-76
2024/03/08 06:18:41;;;;;;;49.80;20.60;;;;;;;;;;5035772;28;20417;-76
2024/03/08 06:21:09;;;;;;;45.00;19.77;;;;;;;;;;5027260;28;20449;-76
2024/03/08 06:23:38;;;;;;;52.17;19.90;;;;;;;;;;5020058;28;20476;-76
2024/03/08 06:26:04;;;;;;;38.00;17.50;;;;;;;;;;5017222;28;20757;-76
2024/03/08 06:28:32;;;;;;;49.20;20.63;;;;;;;;;;5019409;28;20403;-75
2024/03/08 06:30:58;;;;;;;42.40;19.00;;;;;;;;;;5029474;28;20527;-72
2024/03/08 06:33:26;;;;;;;49.73;19.80;;;;;;;;;;5033544;28;20448;-71
2024/03/08 06:35:53;;;;;;;53.03;21.80;;;;;;;;;;5033265;28;20508;-71
2024/03/08 06:38:20;;;;;;;49.90;20.53;;;;;;;;;;5033431;28;20416;-71
2024/03/08 06:40:47;;;;;;;44.33;19.43;;;;;;;;;;5024505;28;20537;-73
2024/03/08 06:43:15;;;;;;;42.73;18.90;;;;;;;;;;5022905;28;20481;-72
2024/03/08 06:45:45;;;;;;;50.50;20.83;;;;;;;;;;5015529;28;20421;-72
2024/03/08 06:48:11;;;;;;;45.83;17.77;;;;;;;;;;5020322;28;20401;-75
2024/03/08 06:50:37;;;;;;;50.63;19.20;;;;;;;;;;5032276;28;20444;-71
2024/03/08 06:53:03;;;;;;;45.43;19.23;;;;;;;;;;5019469;28;20418;-73
2024/03/08 06:55:29;;;;;;;33.03;16.77;;;;;;;;;;5029148;28;20414;-73
2024/03/08 06:57:55;;;;;;;44.73;18.33;;;;;;;;;;5019737;28;20426;-72
2024/03/08 07:00:26;;;;;;;42.87;19.53;;;;;;;;;;5025446;28;20422;-72
2024/03/08 07:02:53;;;;;;;44.60;18.83;;;;;;;;;;5028324;28;20465;-72
2024/03/08 07:05:19;;;;;;;45.60;18.63;;;;;;;;;;5021979;28;20839;-72
2024/03/08 07:07:48;;;;;;;47.03;19.07;;;;;;;;;;5033927;28;20433;-72
2024/03/08 07:10:15;;;;;;;41.20;17.90;;;;;;;;;;5023666;28;20773;-72
2024/03/08 07:12:41;;;;;;;41.83;18.63;;;;;;;;;;5013682;28;20417;-72
2024/03/08 07:15:07;;;;;;;42.30;17.07;;;;;;;;;;5021784;28;20425;-73
2024/03/08 07:17:35;;;;;;;47.73;19.07;;;;;;;;;;5031999;28;20425;-73
2024/03/08 07:20:06;;;;;;;45.47;19.03;;;;;;;;;;5025500;28;20424;-72
2024/03/08 07:22:32;;;;;;;40.83;18.97;;;;;;;;;;5032699;28;20425;-71
2024/03/08 07:27:36;;;;;;;41.80;18.17;;;;;;;;;;5027615;28;20416;-72
2024/03/08 07:30:02;;;;;;;38.63;18.23;;;;;;;;;;5032292;28;20452;-72
2024/03/08 07:32:29;;;;;;;41.53;18.13;;;;;;;;;;5032655;28;20429;-72
2024/03/08 07:34:56;;;;;;;38.97;17.70;;;;;;;;;;5032842;28;20405;-72
2024/03/08 07:37:21;;;;;;;42.43;16.33;;;;;;;;;;5032491;28;20405;-72
2024/03/08 07:39:47;;;;;;;40.70;18.67;;;;;;;;;;5032856;28;20535;-71
2024/03/08 07:42:13;;;;;;;36.07;17.97;;;;;;;;;;5032520;28;20524;-72
2024/03/08 07:44:39;;;;;;;43.50;18.80;;;;;;;;;;5032202;28;20475;-72
2024/03/08 07:47:09;;;;;;;48.30;17.73;;;;;;;;;;5032542;28;20897;-72
2024/03/08 07:49:35;;;;;;;41.90;17.17;;;;;;;;;;5032477;28;20826;-72
2024/03/08 07:52:01;;;;;;;38.83;18.37;;;;;;;;;;5032280;28;20429;-72
2024/03/08 07:54:27;;;;;;;41.70;18.37;;;;;;;;;;5032245;28;20763;-71
2024/03/08 07:56:53;;;;;;;45.30;16.80;;;;;;;;;;5032185;28;20910;-72
2024/03/08 07:59:20;;;;;;;38.20;17.97;;;;;;;;;;5032526;28;20420;-72
2024/03/08 08:01:47;;;;;;;39.07;16.77;;;;;;;;;;5031909;28;20453;-71
2024/03/08 08:04:14;;;;;;;36.33;16.87;;;;;;;;;;5031876;28;20566;-72
2024/03/08 08:06:43;;;;;;;54.57;19.43;;;;;;;;;;5023816;28;20433;-71
2024/03/08 08:09:15;;;;;;;47.53;21.20;;;;;;;;;;5031893;28;20911;-72
2024/03/08 08:11:43;;;;;;;39.33;16.97;;;;;;;;;;5031125;28;20420;-72
2024/03/08 08:14:09;;;;;;;35.20;15.73;;;;;;;;;;5031795;28;20429;-72
2024/03/08 08:16:36;;;;;;;34.17;16.50;;;;;;;;;;5030963;28;20420;-72
2024/03/08 08:19:07;;;;;;;40.80;16.80;;;;;;;;;;5031967;28;20409;-72
2024/03/08 08:21:33;;;;;;;44.73;18.97;;;;;;;;;;5032283;28;20425;-72
2024/03/08 08:24:00;;;;;;;41.90;17.80;;;;;;;;;;5031966;28;20506;-72
2024/03/08 08:26:26;;;;;;;43.20;19.20;;;;;;;;;;5032036;28;20436;-72
2024/03/08 08:28:53;;;;;;;45.07;18.17;;;;;;;;;;5031790;28;20397;-72
2024/03/08 08:31:19;;;;;;;43.17;21.10;;;;;;;;;;5031710;28;20464;-71
2024/03/08 08:33:45;;;;;;;42.90;18.90;;;;;;;;;;5035507;28;20405;-72
2024/03/08 08:36:11;;;;;;;45.33;18.30;;;;;;;;;;5060613;28;20401;-72
2024/03/08 08:38:37;;;;;;;36.87;16.73;;;;;;;;;;5063807;28;20413;-72
2024/03/08 08:41:06;;;;;;;41.60;18.07;;;;;;;;;;5052273;28;21183;-72
2024/03/08 08:43:33;;;;;;;34.80;16.47;;;;;;;;;;5038433;28;20609;-72
2024/03/08 08:45:59;;;;;;;48.10;21.27;;;;;;;;;;5037956;28;20811;-72
2024/03/08 08:48:25;;;;;;;45.63;18.97;;;;;;;;;;5038115;28;20405;-72
2024/03/08 08:50:52;;;;;;;39.30;17.33;;;;;;;;;;5038482;28;20436;-72
2024/03/08 08:53:18;;;;;;;40.30;17.60;;;;;;;;;;5038479;28;20413;-72
2024/03/08 08:55:45;;;;;;;38.87;17.30;;;;;;;;;;5038211;28;20409;-71
2024/03/08 08:58:12;;;;;;;41.83;16.30;;;;;;;;;;5038165;28;20409;-72
2024/03/08 09:00:39;;;;;;;41.07;17.20;;;;;;;;;;5037988;28;20432;-73
2024/03/08 09:03:06;;;;;;;41.27;18.17;;;;;;;;;;5038221;28;20456;-72
2024/03/08 09:05:33;;;;;;;41.50;18.80;;;;;;;;;;5037881;28;20463;-72
2024/03/08 09:08:00;;;;;;;39.57;17.27;;;;;;;;;;5037958;28;20417;-72
2024/03/08 09:10:25;;;;;;;40.70;17.47;;;;;;;;;;5038318;28;20535;-71
2024/03/08 09:12:52;;;;;;;43.17;17.50;;;;;;;;;;5038104;28;20455;-72
2024/03/08 09:15:18;;;;;;;40.70;17.37;;;;;;;;;;5037987;28;20427;-71
2024/03/08 09:17:44;;;;;;;49.43;19.40;;;;;;;;;;5038005;28;20411;-73
2024/03/08 09:20:14;;;;;;;39.33;17.20;;;;;;;;;;5037942;28;20524;-71
2024/03/08 09:22:40;;;;;;;42.00;18.80;;;;;;;;;;5037956;28;20412;-73
2024/03/08 09:25:07;;;;;;;44.50;19.00;;;;;;;;;;5037764;28;20495;-72
2024/03/08 09:27:33;;;;;;;39.37;16.60;;;;;;;;;;5036745;28;20421;-72
2024/03/08 09:30:00;;;;;;;44.17;17.03;;;;;;;;;;5037838;28;20551;-72
2024/03/08 09:32:26;;;;;;;39.87;18.27;;;;;;;;;;5037861;28;20429;-71
2024/03/08 09:34:52;;;;;;;32.10;15.97;;;;;;;;;;5036444;28;20445;-71
2024/03/08 09:37:18;;;;;;;38.27;17.57;;;;;;;;;;5037810;28;20416;-71
2024/03/08 09:39:44;;;;;;;39.30;17.40;;;;;;;;;;5037781;28;20415;-71
2024/03/08 09:42:14;;;;;;;36.03;16.70;;;;;;;;;;5037684;28;20483;-72
2024/03/08 09:44:40;;;;;;;33.83;15.23;;;;;;;;;;5036196;28;20946;-72
2024/03/08 09:47:07;;;;;;;36.50;17.23;;;;;;;;;;5034672;28;20405;-72
2024/03/08 09:49:33;;;;;;;38.40;16.23;;;;;;;;;;5034716;28;20409;-72
2024/03/08 09:51:59;;;;;;;34.50;16.50;;;;;;;;;;5034635;28;20439;-72
2024/03/08 09:54:26;;;;;;;37.40;17.53;;;;;;;;;;5034470;28;20831;-72
2024/03/08 09:56:52;;;;;;;34.17;15.17;;;;;;;;;;5034444;28;20440;-72
2024/03/08 10:01:47;;;;;;;37.97;17.07;;;;;;;;;;5034399;28;20463;-72
2024/03/08 10:04:13;;;;;;;37.27;16.70;;;;;;;;;;5034027;28;20468;-72
2024/03/08 10:06:40;;;;;;;30.77;15.17;;;;;;;;;;5029684;28;20426;-71
2024/03/08 10:09:07;;;;;;;35.33;15.73;;;;;;;;;;5028985;28;20424;-72
2024/03/08 10:11:34;;;;;;;32.70;15.87;;;;;;;;;;5034144;28;20421;-72
2024/03/08 10:14:01;;;;;;;35.87;16.10;;;;;;;;;;5033126;28;20451;-72
2024/03/08 10:16:30;;;;;;;34.63;16.73;;;;;;;;;;5033992;28;20451;-72
2024/03/08 10:18:57;;;;;;;35.20;16.50;;;;;;;;;;5034360;28;20919;-72
2024/03/08 10:21:25;;;;;;;45.07;18.93;;;;;;;;;;5034152;28;20434;-72
2024/03/08 10:23:51;;;;;;;35.33;16.30;;;;;;;;;;5033950;28;20457;-71
2024/03/08 10:26:19;;;;;;;34.63;15.80;;;;;;;;;;5033792;28;20405;-72
2024/03/08 10:28:45;;;;;;;30.27;14.77;;;;;;;;;;5033789;28;20409;-73
2024/03/08 10:31:11;;;;;;;32.57;15.70;;;;;;;;;;5033932;28;20896;-72
2024/03/08 10:33:41;;;;;;;35.33;15.73;;;;;;;;;;5033860;28;20764;-72
2024/03/08 10:36:09;;;;;;;35.97;15.90;;;;;;;;;;5033956;28;20855;-72
2024/03/08 10:38:36;;;;;;;30.20;14.97;;;;;;;;;;5034405;28;20414;-71
2024/03/08 10:41:04;;;;;;;31.70;16.43;;;;;;;;;;5033580;28;20417;-72
2024/03/08 10:43:36;;;;;;;30.77;15.00;;;;;;;;;;5033727;28;20465;-74
2024/03/08 10:46:22;;;;;;;37.20;16.27;;;;;;;;;;5035061;28;20500;-71
2024/03/08 10:48:50;;;;;;;32.60;14.73;;;;;;;;;;5033574;28;20408;-71
2024/03/08 10:51:16;;;;;;;34.70;15.33;;;;;;;;;;5033665;28;20484;-72
2024/03/08 10:53:43;;;;;;;39.93;17.00;;;;;;;;;;5033572;28;20421;-72
2024/03/08 10:56:10;;;;;;;28.87;16.00;;;;;;;;;;5032977;28;20416;-72
2024/03/08 10:58:38;;;;;;;38.13;17.10;;;;;;;;;;5033651;28;20420;-72
2024/03/08 11:01:06;;;;;;;33.03;16.50;;;;;;;;;;5033352;28;20456;-72
2024/03/08 11:03:41;;;;;;;36.80;18.20;;;;;;;;;;5034515;28;20508;-73
2024/03/08 11:06:09;;;;;;;35.50;15.10;;;;;;;;;;5033973;28;20748;-73
2024/03/08 11:08:36;;;;;;;37.17;15.13;;;;;;;;;;5033238;28;20413;-73
2024/03/08 11:11:02;;;;;;;31.70;14.70;;;;;;;;;;5033190;28;20939;-72
2024/03/08 11:13:35;;;;;;;41.37;16.80;;;;;;;;;;5033061;28;20478;-72
2024/03/08 11:16:01;;;;;;;33.33;15.70;;;;;;;;;;5032726;28;20410;-72
2024/03/08 11:18:27;;;;;;;33.33;15.70;;;;;;;;;;5032710;28;20500;-72
2024/03/08 11:20:57;;;;;;;33.70;16.90;;;;;;;;;;5032848;28;20486;-73
2024/03/08 11:23:25;;;;;;;38.50;16.03;;;;;;;;;;5032777;28;20545;-73
2024/03/08 11:25:52;;;;;;;30.73;15.53;;;;;;;;;;5032801;28;20492;-74
2024/03/08 11:28:23;;;;;;;35.33;16.50;;;;;;;;;;5032559;28;20429;-74
2024/03/08 11:30:58;;;;;;;32.87;16.50;;;;;;;;;;5031201;28;20437;-73
2024/03/08 11:33:25;;;;;;;33.90;15.60;;;;;;;;;;5032760;28;20423;-74
2024/03/08 11:35:51;;;;;;;35.87;16.37;;;;;;;;;;5032557;28;20419;-74
2024/03/08 11:38:19;;;;;;;30.97;15.33;;;;;;;;;;5033025;28;20492;-73
2024/03/08 11:40:49;;;;;;;38.00;16.27;;;;;;;;;;5032616;28;20452;-73
2024/03/08 11:43:16;;;;;;;31.97;15.13;;;;;;;;;;5032709;28;20461;-74
2024/03/08 11:45:42;;;;;;;34.30;15.20;;;;;;;;;;5032800;28;20420;-74
2024/03/08 11:48:08;;;;;;;30.20;15.20;;;;;;;;;;5039227;28;20405;-74
2024/03/08 11:50:34;;;;;;;31.80;16.13;;;;;;;;;;5057857;28;20417;-74
2024/03/08 11:53:04;;;;;;;30.17;14.53;;;;;;;;;;5057880;28;20413;-73
2024/03/08 11:55:31;;;;;;;31.60;14.73;;;;;;;;;;5035978;28;20418;-73
2024/03/08 11:58:01;;;;;;;35.93;17.17;;;;;;;;;;5032403;28;20405;-73
2024/03/08 12:00:33;;;;;;;30.07;15.77;;;;;;;;;;5032088;28;20409;-73
2024/03/08 12:03:06;;;;;;;30.20;16.97;;;;;;;;;;5032264;28;20827;-73
2024/03/08 12:05:33;;;;;;;34.97;16.50;;;;;;;;;;5031964;28;20401;-73
2024/03/08 12:07:59;;;;;;;40.17;18.93;;;;;;;;;;5022648;28;20442;-74
2024/03/08 12:10:25;;;;;;;37.10;18.57;;;;;;;;;;5028170;28;20417;-73
2024/03/08 12:12:52;;;;;;;39.27;19.37;;;;;;;;;;5030798;28;20448;-73
2024/03/08 12:15:19;;;;;;;36.50;17.10;;;;;;;;;;5031792;28;20417;-74
2024/03/08 12:17:47;;;;;;;38.37;17.57;;;;;;;;;;5031956;28;20421;-73
2024/03/08 12:20:27;;;;;;;37.83;17.60;;;;;;;;;;5030388;28;20417;-73
2024/03/08 12:22:53;;;;;;;34.90;16.97;;;;;;;;;;5031998;28;20472;-73
2024/03/08 12:25:20;;;;;;;31.63;16.60;;;;;;;;;;5031691;28;20821;-73
2024/03/08 12:27:46;;;;;;;48.53;18.10;;;;;;;;;;5031888;28;20416;-72
2024/03/08 12:30:26;;;;;;;35.33;16.90;;;;;;;;;;5032118;28;20450;-73
2024/03/08 12:32:59;;;;;;;32.90;15.93;;;;;;;;;;5032486;28;20970;-73
2024/03/08 12:35:29;;;;;;;33.73;17.40;;;;;;;;;;5032497;28;20424;-73
2024/03/08 12:37:58;;;;;;;35.10;16.37;;;;;;;;;;5033957;28;20401;-73
2024/03/08 12:40:28;;;;;;;38.93;18.20;;;;;;;;;;5030508;28;20428;-73
2024/03/08 12:42:54;;;;;;;44.57;17.63;;;;;;;;;;5031557;28;20453;-73
2024/03/08 12:45:23;;;;;;;35.83;17.60;;;;;;;;;;5031745;28;20405;-73
2024/03/08 12:47:49;;;;;;;30.50;16.43;;;;;;;;;;5031534;28;20409;-73
2024/03/08 12:50:17;;;;;;;32.80;16.10;;;;;;;;;;5031870;28;20919;-73
2024/03/08 12:52:43;;;;;;;37.53;17.57;;;;;;;;;;5031614;28;20515;-72
2024/03/08 12:55:09;;;;;;;35.00;16.90;;;;;;;;;;5031320;28;20830;-72
2024/03/08 12:57:37;;;;;;;45.03;17.20;;;;;;;;;;5031733;28;20405;-73
2024/03/08 13:00:04;;;;;;;39.97;18.10;;;;;;;;;;5031894;28;20412;-72
2024/03/08 13:02:31;;;;;;;40.03;17.90;;;;;;;;;;5031571;28;20451;-73
2024/03/08 13:04:58;;;;;;;34.80;17.10;;;;;;;;;;5031261;28;20405;-73
2024/03/08 13:07:25;;;;;;;35.67;16.50;;;;;;;;;;5031617;28;21016;-73
2024/03/08 13:09:53;;;;;;;38.73;18.60;;;;;;;;;;5031633;28;20393;-73
2024/03/08 13:12:20;;;;;;;34.17;16.33;;;;;;;;;;5031568;28;20921;-73
2024/03/08 13:14:46;;;;;;;34.03;17.20;;;;;;;;;;5031472;28;20450;-73
2024/03/08 13:17:12;;;;;;;37.03;17.30;;;;;;;;;;5031581;28;20413;-73
2024/03/08 13:19:38;;;;;;;37.60;17.70;;;;;;;;;;5032825;28;20476;-72
2024/03/08 13:22:05;;;;;;;40.70;17.80;;;;;;;;;;5035078;28;20432;-72
2024/03/08 13:24:31;;;;;;;34.53;17.30;;;;;;;;;;5034890;28;20487;-73
2024/03/08 13:26:58;;;;;;;38.43;16.70;;;;;;;;;;5035185;28;20433;-73
2024/03/08 13:29:24;;;;;;;36.10;17.73;;;;;;;;;;5033732;28;20959;-73
2024/03/08 13:31:51;;;;;;;46.47;18.40;;;;;;;;;;5034807;28;20433;-73
2024/03/08 13:34:29;;;;;;;41.63;18.90;;;;;;;;;;5036720;28;20459;-73
2024/03/08 13:36:59;;;;;;;42.40;18.10;;;;;;;;;;5035670;28;20776;-73
2024/03/08 13:39:25;;;;;;;48.77;21.70;;;;;;;;;;5035040;28;20413;-73
2024/03/08 13:41:51;;;;;;;32.53;17.33;;;;;;;;;;5034802;28;20429;-73
2024/03/08 13:44:17;;;;;;;44.97;17.80;;;;;;;;;;5033175;28;20539;-72
2024/03/08 13:46:43;;;;;;;37.23;17.13;;;;;;;;;;5034580;28;20417;-73
2024/03/08 13:49:10;;;;;;;44.27;19.80;;;;;;;;;;5034788;28;20406;-73
2024/03/08 13:51:36;;;;;;;41.27;18.87;;;;;;;;;;5035134;28;20421;-72
2024/03/08 13:54:06;;;;;;;35.90;17.20;;;;;;;;;;5037406;28;20504;-73
2024/03/08 13:56:32;;;;;;;38.40;16.97;;;;;;;;;;5050629;28;20427;-73
2024/03/08 13:58:58;;;;;;;37.67;17.43;;;;;;;;;;5049652;28;20417;-73
2024/03/08 14:01:25;;;;;;;37.83;16.33;;;;;;;;;;5047398;28;20472;-73
2024/03/08 14:03:51;;;;;;;38.63;17.10;;;;;;;;;;5032679;28;20493;-73
2024/03/08 14:06:17;;;;;;;38.30;18.00;;;;;;;;;;5032520;28;20421;-73
2024/03/08 14:08:43;;;;;;;39.67;16.93;;;;;;;;;;5024627;28;20488;-74
2024/03/08 14:11:13;;;;;;;38.90;17.10;;;;;;;;;;5039843;28;20437;-73
2024/03/08 14:13:45;;;;;;;37.40;16.13;;;;;;;;;;5034714;28;20409;-74
2024/03/08 14:16:15;;;;;;;41.10;16.90;;;;;;;;;;5014476;28;20487;-73
2024/03/08 14:18:41;;;;;;;40.33;17.40;;;;;;;;;;5017009;28;20451;-73
2024/03/08 14:21:10;;;;;;;35.07;17.10;;;;;;;;;;5022303;28;20520;-73
2024/03/08 14:23:36;;;;;;;35.23;16.57;;;;;;;;;;5020800;28;20464;-73
2024/03/08 14:26:04;;;;;;;36.40;16.30;;;;;;;;;;5032305;28;20420;-73
2024/03/08 14:28:32;;;;;;;39.87;17.33;;;;;;;;;;5019669;28;20409;-73
2024/03/08 14:30:58;;;;;;;38.80;17.90;;;;;;;;;;5032078;28;20491;-74
2024/03/08 14:33:25;;;;;;;39.17;16.10;;;;;;;;;;5035025;28;20425;-73
2024/03/08 14:35:51;;;;;;;32.20;15.83;;;;;;;;;;5043068;28;20413;-73
2024/03/08 14:38:17;;;;;;;37.10;16.60;;;;;;;;;;5042761;28;20409;-72
2024/03/08 14:40:46;;;;;;;38.47;16.50;;;;;;;;;;5033981;28;20844;-73
2024/03/08 14:43:16;;;;;;;42.00;19.13;;;;;;;;;;5037712;28;20503;-73
2024/03/08 14:45:42;;;;;;;41.87;17.20;;;;;;;;;;5032438;28;20417;-72
2024/03/08 14:48:08;;;;;;;41.53;18.83;;;;;;;;;;5033634;28;20512;-72
2024/03/08 14:50:36;;;;;;;40.90;17.43;;;;;;;;;;5031991;28;20849;-74
2024/03/08 14:53:06;;;;;;;36.10;16.87;;;;;;;;;;5021395;28;20778;-74
2024/03/08 14:55:32;;;;;;;48.03;18.80;;;;;;;;;;5026736;28;20441;-73
2024/03/08 14:57:58;;;;;;;39.80;18.60;;;;;;;;;;5056077;28;20436;-74
2024/03/08 15:00:33;;;;;;;38.60;17.50;;;;;;;;;;5057605;28;20448;-73
2024/03/08 15:02:59;;;;;;;43.63;17.37;;;;;;;;;;5058138;28;20455;-73
2024/03/08 15:05:31;;;;;;;48.60;16.70;;;;;;;;;;5053346;28;20448;-75
2024/03/08 15:07:58;;;;;;;37.17;15.50;;;;;;;;;;5057812;28;20480;-74
2024/03/08 15:10:25;;;;;;;36.23;16.50;;;;;;;;;;5050361;28;20429;-73
2024/03/08 15:12:55;;;;;;;35.37;17.37;;;;;;;;;;5043757;28;20424;-74
2024/03/08 15:15:22;;;;;;;37.60;17.77;;;;;;;;;;5037425;28;20397;-73
2024/03/08 15:17:49;;;;;;;45.60;18.37;;;;;;;;;;5033404;28;20496;-73
2024/03/08 15:20:16;;;;;;;41.00;15.90;;;;;;;;;;5032244;28;20428;-73
2024/03/08 15:22:47;;;;;;;38.93;16.90;;;;;;;;;;5018480;28;20468;-73
2024/03/08 15:25:20;;;;;;;39.87;17.23;;;;;;;;;;5012788;28;20402;-74
2024/03/08 15:27:46;;;;;;;38.80;16.60;;;;;;;;;;5032503;28;20390;-73
2024/03/08 15:30:13;;;;;;;38.30;17.23;;;;;;;;;;5031772;28;20420;-73
2024/03/08 15:32:48;;;;;;;38.17;17.30;;;;;;;;;;5032186;28;20814;-73
2024/03/08 15:35:16;;;;;;;37.80;17.77;;;;;;;;;;5032439;28;20506;-73
2024/03/08 15:37:42;;;;;;;38.90;18.43;;;;;;;;;;5031923;28;20408;-73
2024/03/08 15:40:12;;;;;;;36.10;16.90;;;;;;;;;;5024888;28;20417;-79
2024/03/08 15:42:38;;;;;;;38.23;17.90;;;;;;;;;;5032242;28;20900;-78
2024/03/08 15:45:04;;;;;;;35.90;17.70;;;;;;;;;;5033379;28;20487;-79
2024/03/08 15:47:30;;;;;;;33.20;16.43;;;;;;;;;;5033569;28;20421;-77
2024/03/08 15:49:56;;;;;;;32.07;17.03;;;;;;;;;;5027803;28;20420;-75
2024/03/08 15:52:22;;;;;;;39.90;18.10;;;;;;;;;;5026650;28;20475;-77
2024/03/08 15:54:48;;;;;;;37.13;18.00;;;;;;;;;;5030620;28;20991;-77
2024/03/08 15:57:15;;;;;;;39.37;17.43;;;;;;;;;;5032298;28;20456;-77
2024/03/08 15:59:41;;;;;;;36.87;17.30;;;;;;;;;;5030002;28;20483;-77
2024/03/08 16:02:07;;;;;;;38.33;17.33;;;;;;;;;;5013804;28;20499;-77
2024/03/08 16:04:33;;;;;;;35.53;16.67;;;;;;;;;;5020307;28;20508;-77
2024/03/08 16:07:00;;;;;;;39.80;18.27;;;;;;;;;;5029766;28;20432;-77
2024/03/08 16:09:29;;;;;;;37.17;17.37;;;;;;;;;;5028657;28;20418;-78
2024/03/08 16:11:58;;;;;;;42.57;17.77;;;;;;;;;;5032376;28;20475;-78
2024/03/08 16:14:24;;;;;;;35.30;16.67;;;;;;;;;;5030682;28;21003;-77
2024/03/08 16:16:51;;;;;;;32.73;14.93;;;;;;;;;;5030662;28;20571;-77
2024/03/08 16:19:17;;;;;;;37.13;16.87;;;;;;;;;;5030031;28;20436;-76
2024/03/08 16:21:43;;;;;;;31.20;15.50;;;;;;;;;;5018786;28;20449;-77
2024/03/08 16:24:09;;;;;;;37.93;17.73;;;;;;;;;;5031586;28;20837;-77
2024/03/08 16:26:35;;;;;;;35.90;16.97;;;;;;;;;;5032320;28;20411;-77
2024/03/08 16:29:04;;;;;;;33.30;15.60;;;;;;;;;;5035228;28;20423;-77
2024/03/08 16:31:30;;;;;;;33.47;16.37;;;;;;;;;;5031338;28;20437;-77
2024/03/08 16:33:57;;;;;;;38.23;16.03;;;;;;;;;;5031485;28;20413;-78
2024/03/08 16:36:23;;;;;;;32.93;16.33;;;;;;;;;;5025291;28;20430;-77
2024/03/08 16:38:49;;;;;;;35.50;16.83;;;;;;;;;;5014147;28;20476;-78
2024/03/08 16:41:15;;;;;;;36.37;16.90;;;;;;;;;;5029574;28;20444;-77
2024/03/08 16:43:43;;;;;;;36.67;17.67;;;;;;;;;;5031441;28;20464;-78
2024/03/08 16:46:11;;;;;;;33.77;15.83;;;;;;;;;;5016796;28;20468;-77
2024/03/08 16:48:37;;;;;;;40.20;17.80;;;;;;;;;;5014160;28;20414;-78
2024/03/08 16:51:04;;;;;;;32.90;16.63;;;;;;;;;;5028646;28;20445;-78
2024/03/08 16:53:31;;;;;;;33.43;14.97;;;;;;;;;;5031931;28;20523;-78
2024/03/08 16:55:57;;;;;;;28.87;15.10;;;;;;;;;;5036539;28;20935;-78
2024/03/08 16:58:23;;;;;;;34.57;16.07;;;;;;;;;;5036132;28;20417;-77
2024/03/08 17:00:49;;;;;;;32.57;15.33;;;;;;;;;;5026772;28;20987;-77
2024/03/08 17:03:16;;;;;;;32.13;14.93;;;;;;;;;;5033182;28;20571;-76
2024/03/08 17:05:45;;;;;;;33.97;16.20;;;;;;;;;;5034155;28;20466;-77
2024/03/08 17:08:11;;;;;;;35.53;16.60;;;;;;;;;;5033654;28;20500;-78
2024/03/08 17:10:39;;;;;;;34.83;15.27;;;;;;;;;;5029694;28;20437;-77
2024/03/08 17:13:07;;;;;;;25.80;13.73;;;;;;;;;;5031533;28;20410;-78
2024/03/08 17:15:35;;;;;;;35.40;15.10;;;;;;;;;;5021249;28;20520;-77
2024/03/08 17:18:08;;;;;;;31.90;14.70;;;;;;;;;;5023543;28;20417;-77
2024/03/08 17:20:38;;;;;;;34.60;14.97;;;;;;;;;;5024339;28;20873;-77
2024/03/08 17:23:07;;;;;;;35.60;15.57;;;;;;;;;;5014001;28;20548;-77
2024/03/08 17:25:34;;;;;;;38.30;15.30;;;;;;;;;;5013519;28;20418;-77
2024/03/08 17:28:02;;;;;;;33.30;15.43;;;;;;;;;;5017400;28;20421;-74
2024/03/08 17:30:32;;;;;;;31.77;13.90;;;;;;;;;;5035156;28;20421;-78
2024/03/08 17:32:58;;;;;;;30.33;14.07;;;;;;;;;;5034777;28;20413;-78
2024/03/08 17:35:26;;;;;;;29.60;13.50;;;;;;;;;;5035862;28;20467;-78
2024/03/08 17:37:55;;;;;;;28.23;13.93;;;;;;;;;;5033918;28;20411;-75
2024/03/08 17:40:24;;;;;;;27.97;13.90;;;;;;;;;;5033928;28;20417;-75
2024/03/08 17:42:54;;;;;;;27.47;13.23;;;;;;;;;;5033182;28;20421;-75
2024/03/08 17:45:21;;;;;;;32.77;13.37;;;;;;;;;;5033583;28;20471;-75
2024/03/08 17:47:48;;;;;;;27.40;11.70;;;;;;;;;;5034517;28;20708;-75
2024/03/08 17:50:18;;;;;;;25.73;13.87;;;;;;;;;;5032843;28;20417;-75
2024/03/08 17:52:47;;;;;;;24.50;11.90;;;;;;;;;;5034901;28;20397;-75
2024/03/08 17:55:13;;;;;;;27.53;12.53;;;;;;;;;;5034723;28;20428;-75
2024/03/08 17:57:49;;;;;;;30.90;14.70;;;;;;;;;;5027580;28;20469;-74
2024/03/08 18:00:39;;;;;;;31.57;13.63;;;;;;;;;;5031109;28;20412;-76
2024/03/08 18:03:05;;;;;;;27.13;13.70;;;;;;;;;;5014899;28;20465;-75
2024/03/08 18:05:32;;;;;;;25.40;12.13;;;;;;;;;;5013808;28;20493;-76
2024/03/08 18:07:58;;;;;;;29.23;13.97;;;;;;;;;;5013703;28;20468;-75
2024/03/08 18:10:26;;;;;;;30.67;12.90;;;;;;;;;;5014761;28;20421;-75
2024/03/08 18:12:59;;;;;;;26.33;12.23;;;;;;;;;;5013673;28;20422;-76
2024/03/08 18:15:26;;;;;;;24.20;11.97;;;;;;;;;;5014636;28;20406;-76
2024/03/08 18:17:55;;;;;;;24.50;12.97;;;;;;;;;;5023919;28;20448;-76
2024/03/08 18:20:43;;;;;;;26.63;13.40;;;;;;;;;;5038345;28;20411;-76
2024/03/08 18:23:10;;;;;;;27.37;12.73;;;;;;;;;;5035876;28;20509;-76
2024/03/08 18:25:37;;;;;;;25.73;12.90;;;;;;;;;;5015989;28;20770;-76
2024/03/08 18:28:08;;;;;;;27.03;13.70;;;;;;;;;;5014357;28;20429;-75
2024/03/08 18:30:36;;;;;;;23.73;12.60;;;;;;;;;;5029595;28;20437;-74
2024/03/08 18:33:02;;;;;;;27.50;12.77;;;;;;;;;;5034359;28;20405;-74
2024/03/08 18:35:28;;;;;;;30.40;14.67;;;;;;;;;;5032846;28;20467;-74
2024/03/08 18:37:55;;;;;;;26.97;13.03;;;;;;;;;;5034479;28;20405;-75
2024/03/08 18:40:26;;;;;;;24.97;12.60;;;;;;;;;;5033628;28;20489;-75
2024/03/08 18:42:53;;;;;;;28.90;12.73;;;;;;;;;;5032408;28;20417;-75
2024/03/08 18:45:20;;;;;;;24.23;11.40;;;;;;;;;;5033509;28;20471;-75
2024/03/08 18:47:48;;;;;;;23.47;11.70;;;;;;;;;;5033608;28;20773;-75
2024/03/08 18:50:15;;;;;;;25.77;12.30;;;;;;;;;;5032399;28;20478;-75
2024/03/08 18:52:42;;;;;;;24.20;11.87;;;;;;;;;;5032195;28;20493;-75
2024/03/08 18:55:12;;;;;;;34.20;14.63;;;;;;;;;;5012493;28;20560;-75
2024/03/08 18:57:46;;;;;;;32.80;14.47;;;;;;;;;;5013861;28;20402;-75
2024/03/08 19:00:20;;;;;;;26.83;13.50;;;;;;;;;;5013652;28;20406;-75
2024/03/08 19:02:47;;;;;;;29.27;12.53;;;;;;;;;;5013271;28;20429;-76
2024/03/08 19:05:16;;;;;;;28.10;12.93;;;;;;;;;;5013006;28;20508;-75
2024/03/08 19:07:46;;;;;;;29.57;13.37;;;;;;;;;;5029582;28;20470;-74
2024/03/08 19:10:19;;;;;;;28.00;13.10;;;;;;;;;;5053293;28;20473;-75
2024/03/08 19:12:55;;;;;;;26.37;12.27;;;;;;;;;;5045487;28;20453;-75
2024/03/08 19:15:22;;;;;;;30.00;13.20;;;;;;;;;;5013273;28;20500;-74
2024/03/08 19:17:51;;;;;;;24.60;13.40;;;;;;;;;;5013343;28;20518;-76
2024/03/08 19:20:21;;;;;;;25.73;12.93;;;;;;;;;;5013989;28;20417;-74
2024/03/08 19:22:51;;;;;;;30.87;13.77;;;;;;;;;;5013980;28;20572;-75
2024/03/08 19:25:17;;;;;;;22.20;11.70;;;;;;;;;;5014059;28;20898;-75
2024/03/08 19:27:43;;;;;;;30.83;13.93;;;;;;;;;;5013795;28;20413;-75
2024/03/08 19:30:13;;;;;;;27.93;13.33;;;;;;;;;;5019481;28;20410;-74
2024/03/08 19:32:39;;;;;;;31.10;14.30;;;;;;;;;;5033094;28;20397;-75
2024/03/08 19:35:18;;;;;;;28.57;13.70;;;;;;;;;;5033456;28;20409;-75
2024/03/08 19:37:44;;;;;;;24.57;11.17;;;;;;;;;;5018334;28;20418;-74
2024/03/08 19:40:20;;;;;;;31.30;12.53;;;;;;;;;;5012506;28;20501;-75
2024/03/08 19:42:50;;;;;;;27.20;11.87;;;;;;;;;;5013222;28;20406;-75
2024/03/08 19:45:16;;;;;;;28.63;12.80;;;;;;;;;;5016819;28;20829;-74
2024/03/08 19:47:43;;;;;;;24.93;11.33;;;;;;;;;;5014821;28;20850;-74
2024/03/08 19:50:16;;;;;;;26.40;10.80;;;;;;;;;;5019665;28;20410;-75
2024/03/08 19:52:46;;;;;;;25.10;11.30;;;;;;;;;;5033793;28;20425;-76
2024/03/08 19:55:15;;;;;;;22.53;10.57;;;;;;;;;;5032438;28;20412;-74
2024/03/08 19:57:48;;;;;;;18.90;10.20;;;;;;;;;;5031984;28;20405;-74
2024/03/08 20:00:14;;;;;;;25.87;12.37;;;;;;;;;;5032271;28;20413;-75
2024/03/08 20:02:44;;;;;;;26.00;12.10;;;;;;;;;;5032043;28;20523;-75
2024/03/08 20:05:12;;;;;;;24.90;10.43;;;;;;;;;;5030257;28;21045;-75
2024/03/08 20:07:42;;;;;;;22.07;11.10;;;;;;;;;;5032184;28;20405;-75
2024/03/08 20:10:13;;;;;;;21.60;9.87;;;;;;;;;;5031828;28;20405;-75
2024/03/08 20:12:40;;;;;;;17.87;9.43;;;;;;;;;;5032626;28;20416;-75
2024/03/08 20:15:08;;;;;;;19.37;9.80;;;;;;;;;;5014391;28;20793;-75
2024/03/08 20:17:37;;;;;;;24.37;11.80;;;;;;;;;;5011862;28;20421;-75
2024/03/08 20:20:14;;;;;;;23.27;10.27;;;;;;;;;;5010962;28;20426;-75
2024/03/08 20:22:41;;;;;;;21.57;11.63;;;;;;;;;;5011895;28;20902;-75
2024/03/08 20:25:13;;;;;;;29.33;13.37;;;;;;;;;;5011703;28;20476;-75